createdAt,value
2023-01-29T00:05:16.679Z,99146.00
2023-01-29T00:11:46.845Z,99133.00
2023-01-29T00:17:13.423Z,99129.00
2023-01-29T00:23:00.298Z,99111.00
2023-01-29T00:28:30.291Z,99113.00
2023-01-29T00:34:09.563Z,99107.00
2023-01-29T00:39:47.569Z,99099.00
2023-01-29T00:45:10.031Z,99102.00
2023-01-29T00:50:32.001Z,99100.00
2023-01-29T00:56:07.550Z,99096.00
2023-01-29T01:02:19.443Z,99095.00
2023-01-29T01:07:41.959Z,99102.00
2023-01-29T01:13:07.472Z,99104.00
2023-01-29T01:18:49.405Z,99119.00
2023-01-29T01:24:20.284Z,99100.00
2023-01-29T01:29:43.143Z,99099.00
2023-01-29T01:35:05.299Z,99089.00
2023-01-29T01:40:29.547Z,99096.00
2023-01-29T01:46:07.003Z,99095.00
2023-01-29T01:51:55.312Z,99084.00
2023-01-29T02:04:15.598Z,99070.00
2023-01-29T02:10:26.652Z,99082.00
2023-01-29T02:16:12.642Z,99074.00
2023-01-29T02:22:25.410Z,99070.00
2023-01-29T02:28:21.663Z,99064.00
2023-01-29T02:34:03.731Z,99055.00
2023-01-29T02:39:29.950Z,99060.00
2023-01-29T02:45:04.586Z,99065.00
2023-01-29T02:51:21.004Z,99061.00
2023-01-29T02:57:13.855Z,99078.00
2023-01-29T03:03:08.629Z,99089.00
2023-01-29T03:08:43.381Z,99079.00
2023-01-29T03:14:28.517Z,99099.00
2023-01-29T03:19:51.521Z,99075.00
2023-01-29T03:25:38.487Z,99083.00
2023-01-29T03:31:35.670Z,99083.00
2023-01-29T03:37:20.613Z,99091.00
2023-01-29T03:43:39.303Z,99076.00
2023-01-29T03:49:34.591Z,99060.00
2023-01-29T03:55:23.391Z,99079.00
2023-01-29T04:01:18.788Z,99083.00
2023-01-29T04:07:09.232Z,99066.00
2023-01-29T04:13:06.629Z,99063.00
2023-01-29T04:18:57.766Z,99062.00
2023-01-29T04:24:30.879Z,99054.00
2023-01-29T04:30:59.030Z,99055.00
2023-01-29T04:36:54.233Z,99038.00
2023-01-29T04:42:56.468Z,99036.00
2023-01-29T04:48:44.134Z,99028.00
2023-01-29T04:54:44.981Z,99004.00
2023-01-29T05:00:16.492Z,98992.00
2023-01-29T05:05:57.645Z,98978.00
2023-01-29T05:11:35.979Z,98968.00
2023-01-29T05:17:28.671Z,98982.00
2023-01-29T05:22:56.952Z,98968.00
2023-01-29T05:28:39.681Z,98984.00
2023-01-29T05:34:08.294Z,98980.00
2023-01-29T05:39:30.577Z,98977.00
2023-01-29T05:44:52.117Z,98973.00
2023-01-29T05:50:15.613Z,98964.00
2023-01-29T05:55:37.716Z,98959.00
2023-01-29T06:01:16.221Z,98968.00
2023-01-29T06:06:57.682Z,98968.00
2023-01-29T06:12:29.033Z,98978.00
2023-01-29T06:18:05.498Z,98987.00
2023-01-29T06:23:56.350Z,98995.00
2023-01-29T06:29:27.390Z,98999.00
2023-01-29T06:34:49.845Z,99006.00
2023-01-29T06:40:11.937Z,98993.00
2023-01-29T06:45:33.135Z,98994.00
2023-01-29T06:51:22.923Z,99006.00
2023-01-29T06:57:04.473Z,99017.00
2023-01-29T07:02:35.589Z,99030.00
2023-01-29T07:07:57.683Z,99049.00
2023-01-29T07:13:34.759Z,99079.00
2023-01-29T07:19:09.089Z,99078.00
2023-01-29T07:24:35.450Z,99082.00
2023-01-29T07:29:57.178Z,99081.00
2023-01-29T07:35:18.745Z,99088.00
2023-01-29T07:40:40.380Z,99091.00
2023-01-29T07:46:22.580Z,99081.00
2023-01-29T07:52:22.101Z,99094.00
2023-01-29T07:58:08.507Z,99084.00
2023-01-29T08:03:38.321Z,99087.00
2023-01-29T08:09:26.900Z,99075.00
2023-01-29T08:14:50.307Z,99079.00
2023-01-29T08:20:12.239Z,99071.00
2023-01-29T08:25:34.342Z,99050.00
2023-01-29T08:31:55.945Z,99044.00
2023-01-29T08:38:29.521Z,99042.00
2023-01-29T08:50:48.700Z,99026.00
2023-01-29T08:56:32.603Z,99027.00
2023-01-29T09:02:19.454Z,99042.00
2023-01-29T09:07:46.649Z,99056.00
2023-01-29T09:13:20.340Z,99057.00
2023-01-29T09:19:06.074Z,99041.00
2023-01-29T09:24:30.069Z,99054.00
2023-01-29T09:29:51.620Z,99060.00
2023-01-29T09:35:13.084Z,99043.00
2023-01-29T09:41:24.833Z,99056.00
2023-01-29T09:47:21.885Z,99035.00
2023-01-29T09:53:45.435Z,99023.00
2023-01-29T09:59:20.103Z,98990.00
2023-01-29T10:05:08.716Z,98974.00
2023-01-29T10:10:57.680Z,98950.00
2023-01-29T10:17:15.260Z,98947.00
2023-01-29T10:22:57.862Z,98951.00
2023-01-29T10:29:06.572Z,98947.00
2023-01-29T10:34:43.239Z,98961.00
2023-01-29T10:40:21.553Z,98957.00
2023-01-29T10:46:46.972Z,98937.00
2023-01-29T10:53:02.644Z,98933.00
2023-01-29T10:59:04.232Z,98925.00
2023-01-29T11:04:48.838Z,98913.00
2023-01-29T11:10:44.088Z,98907.00
2023-01-29T11:16:22.065Z,98889.00
2023-01-29T11:22:15.992Z,98876.00
2023-01-29T11:27:58.764Z,98877.00
2023-01-29T11:33:29.506Z,98840.00
2023-01-29T11:39:25.247Z,98828.00
2023-01-29T11:44:48.060Z,98827.00
2023-01-29T11:50:27.382Z,98831.00
2023-01-29T11:56:08.555Z,98836.00
2023-01-29T12:02:02.399Z,98797.00
2023-01-29T12:07:29.667Z,98797.00
2023-01-29T12:13:11.601Z,98811.00
2023-01-29T12:19:11.548Z,98825.00
2023-01-29T12:24:57.938Z,98812.00
2023-01-29T12:31:17.583Z,98798.00
2023-01-29T12:37:17.070Z,98776.00
2023-01-29T12:43:04.031Z,98758.00
2023-01-29T12:48:43.339Z,98749.00
2023-01-29T12:54:17.653Z,98738.00
2023-01-29T12:59:51.991Z,98739.00
2023-01-29T13:05:41.497Z,98755.00
2023-01-29T13:11:32.591Z,98744.00
2023-01-29T13:17:18.835Z,98745.00
2023-01-29T13:23:05.270Z,98744.00
2023-01-29T13:28:39.019Z,98727.00
2023-01-29T13:34:11.522Z,98723.00
2023-01-29T13:39:44.535Z,98729.00
2023-01-29T13:45:08.674Z,98728.00
2023-01-29T13:50:41.450Z,98733.00
2023-01-29T13:56:46.102Z,98726.00
2023-01-29T14:02:42.055Z,98730.00
2023-01-29T14:08:35.824Z,98714.00
2023-01-29T14:13:57.384Z,98708.00
2023-01-29T14:19:22.497Z,98712.00
2023-01-29T14:24:44.470Z,98699.00
2023-01-29T14:30:16.766Z,98685.00
2023-01-29T14:35:38.085Z,98681.00
2023-01-29T14:41:41.120Z,98697.00
2023-01-29T14:47:24.761Z,98696.00
2023-01-29T14:53:04.216Z,98712.00
2023-01-29T14:58:58.911Z,98713.00
2023-01-29T15:04:52.480Z,98722.00
2023-01-29T15:10:37.720Z,98705.00
2023-01-29T15:16:28.232Z,98708.00
2023-01-29T15:28:31.310Z,98697.00
2023-01-29T15:34:10.491Z,98697.00
2023-01-29T15:39:44.183Z,98696.00
2023-01-29T15:45:06.185Z,98697.00
2023-01-29T15:50:29.407Z,98686.00
2023-01-29T15:56:31.283Z,98687.00
2023-01-29T16:02:30.602Z,98677.00
2023-01-29T16:07:59.446Z,98688.00
2023-01-29T16:13:46.567Z,98677.00
2023-01-29T16:19:31.945Z,98681.00
2023-01-29T16:24:55.730Z,98674.00
2023-01-29T16:30:18.616Z,98663.00
2023-01-29T16:35:40.771Z,98670.00
2023-01-29T16:41:39.661Z,98661.00
2023-01-29T16:47:28.341Z,98674.00
2023-01-29T16:53:17.211Z,98652.00
2023-01-29T16:58:38.802Z,98657.00
2023-01-29T17:04:30.192Z,98658.00
2023-01-29T17:10:14.642Z,98657.00
2023-01-29T17:15:45.187Z,98646.00
2023-01-29T17:21:28.709Z,98650.00
2023-01-29T17:27:18.506Z,98646.00
2023-01-29T17:33:01.325Z,98637.00
2023-01-29T17:38:45.020Z,98651.00
2023-01-29T17:44:11.516Z,98644.00
2023-01-29T17:49:34.385Z,98654.00
2023-01-29T17:54:56.088Z,98642.00
2023-01-29T18:00:20.845Z,98639.00
2023-01-29T18:05:45.159Z,98636.00
2023-01-29T18:11:28.896Z,98629.00
2023-01-29T18:17:09.933Z,98624.00
2023-01-29T18:23:00.996Z,98618.00
2023-01-29T18:28:38.254Z,98614.00
2023-01-29T18:34:11.652Z,98618.00
2023-01-29T18:39:34.197Z,98617.00
2023-01-29T18:44:55.412Z,98602.00
2023-01-29T18:50:17.048Z,98593.00
2023-01-29T18:55:38.677Z,98576.00
2023-01-29T19:01:00.686Z,98567.00
2023-01-29T19:06:48.665Z,98572.00
2023-01-29T19:12:24.824Z,98557.00
2023-01-29T19:18:01.862Z,98564.00
2023-01-29T19:23:39.394Z,98541.00
2023-01-29T19:29:09.633Z,98538.00
2023-01-29T19:34:31.874Z,98514.00
2023-01-29T19:39:53.976Z,98513.00
2023-01-29T19:45:15.640Z,98500.00
2023-01-29T19:50:38.938Z,98491.00
2023-01-29T19:56:27.459Z,98505.00
2023-01-29T20:02:05.795Z,98507.00
2023-01-29T20:07:43.484Z,98499.00
2023-01-29T20:13:25.084Z,98501.00
2023-01-29T20:19:13.967Z,98501.00
2023-01-29T20:24:42.436Z,98485.00
2023-01-29T20:30:03.872Z,98480.00
2023-01-29T20:35:30.048Z,98462.00
2023-01-29T20:41:25.566Z,98468.00
2023-01-29T20:46:52.159Z,98475.00
2023-01-29T20:52:27.309Z,98470.00
2023-01-29T20:58:06.865Z,98471.00
2023-01-29T21:03:39.790Z,98456.00
2023-01-29T21:09:10.707Z,98437.00
2023-01-29T21:14:32.923Z,98425.00
2023-01-29T21:19:54.489Z,98407.00
2023-01-29T21:25:16.106Z,98403.00
2023-01-29T21:30:37.765Z,98397.00
2023-01-29T21:36:29.414Z,98386.00
2023-01-29T21:42:43.722Z,98391.00
2023-01-29T21:48:23.779Z,98353.00
2023-01-29T21:53:59.646Z,98350.00
2023-01-29T21:59:27.188Z,98327.00
2023-01-29T22:05:18.213Z,98336.00
2023-01-29T22:10:43.297Z,98322.00
2023-01-29T22:16:28.834Z,98300.00
2023-01-29T22:22:09.851Z,98270.00
2023-01-29T22:27:49.409Z,98263.00
2023-01-29T22:33:27.194Z,98255.00
2023-01-29T22:39:00.804Z,98220.00
2023-01-29T22:44:26.323Z,98234.00
2023-01-29T22:49:50.183Z,98212.00
2023-01-29T22:55:13.206Z,98209.00
2023-01-29T23:00:34.739Z,98194.00
2023-01-29T23:06:22.577Z,98182.00
2023-01-29T23:12:17.781Z,98175.00
2023-01-29T23:17:57.096Z,98165.00
2023-01-29T23:23:36.703Z,98158.00
2023-01-29T23:29:08.418Z,98141.00
2023-01-29T23:34:30.747Z,98136.00
2023-01-29T23:39:51.914Z,98124.00
2023-01-29T23:45:13.211Z,98115.00
2023-01-29T23:50:34.853Z,98094.00
2023-01-29T23:56:27.530Z,98100.00
